Terminal Aerodrome Forecast
Issued by NWS Buffalo, NY

Home | Current Version | Previous Version | Text Only | Print | Product List | Glossary On
Versions: 1 2 3 4 5 6 7 8 9 10 11 12 13 14 15 16 17 18 19 20 21 22 23 24 25 26 27 28 29 30 31 32 33 34
724
FTUS41 KBUF 122342
TAFART
TAF
KART 122342Z 1300/1324 24012G20KT 1/2SM SN BKN004
     FM130130 25012G20KT 1SM -SN BKN007
     FM130230 28012G20KT 5SM -SN BKN015
     FM130400 31014G22KT P6SM SCT015 BKN025
     FM131000 33014G22KT P6SM BKN025
     FM131600 30012G20KT P6SM SCT025 BKN035=

USA.gov is the U.S. government's official web portal to all federal, state and local government web resources and services.